sensor_id;sensor_type;location;lat;lon;timestamp;temperature;humidity
27188;DHT22;14708;50.872;5.306;2023-04-15T00:00:41;20.90;67.70
27188;DHT22;14708;50.872;5.306;2023-04-15T00:03:07;20.90;67.70
27188;DHT22;14708;50.872;5.306;2023-04-15T00:05:33;20.90;67.60
27188;DHT22;14708;50.872;5.306;2023-04-15T00:08:00;20.90;67.60
27188;DHT22;14708;50.872;5.306;2023-04-15T00:10:27;20.90;67.60
27188;DHT22;14708;50.872;5.306;2023-04-15T00:12:53;20.90;67.40
27188;DHT22;14708;50.872;5.306;2023-04-15T00:15:19;20.90;67.60
27188;DHT22;14708;50.872;5.306;2023-04-15T00:17:45;20.90;67.60
27188;DHT22;14708;50.872;5.306;2023-04-15T00:20:11;20.80;67.60
27188;DHT22;14708;50.872;5.306;2023-04-15T00:22:36;20.80;67.50
27188;DHT22;14708;50.872;5.306;2023-04-15T00:25:02;20.80;67.50
27188;DHT22;14708;50.872;5.306;2023-04-15T00:27:28;20.80;67.60
27188;DHT22;14708;50.872;5.306;2023-04-15T00:29:54;20.80;67.70
27188;DHT22;14708;50.872;5.306;2023-04-15T00:32:20;20.80;67.60
27188;DHT22;14708;50.872;5.306;2023-04-15T00:34:46;20.80;67.50
27188;DHT22;14708;50.872;5.306;2023-04-15T00:37:12;20.80;67.60
27188;DHT22;14708;50.872;5.306;2023-04-15T00:39:38;20.80;68.40
27188;DHT22;14708;50.872;5.306;2023-04-15T00:42:04;20.80;67.50
27188;DHT22;14708;50.872;5.306;2023-04-15T00:44:30;20.70;67.50
27188;DHT22;14708;50.872;5.306;2023-04-15T00:46:56;20.70;67.50
27188;DHT22;14708;50.872;5.306;2023-04-15T00:49:22;20.70;67.60
27188;DHT22;14708;50.872;5.306;2023-04-15T00:51:49;20.70;67.60
27188;DHT22;14708;50.872;5.306;2023-04-15T00:54:15;20.70;67.70
27188;DHT22;14708;50.872;5.306;2023-04-15T00:56:41;20.70;67.60
27188;DHT22;14708;50.872;5.306;2023-04-15T00:59:07;20.70;67.60
27188;DHT22;14708;50.872;5.306;2023-04-15T01:01:36;20.70;67.50
27188;DHT22;14708;50.872;5.306;2023-04-15T01:04:03;20.70;67.70
27188;DHT22;14708;50.872;5.306;2023-04-15T01:06:32;20.70;67.90
27188;DHT22;14708;50.872;5.306;2023-04-15T01:08:58;20.70;67.70
27188;DHT22;14708;50.872;5.306;2023-04-15T01:11:24;20.70;67.70
27188;DHT22;14708;50.872;5.306;2023-04-15T01:13:51;20.70;67.60
27188;DHT22;14708;50.872;5.306;2023-04-15T01:16:18;20.60;67.60
27188;DHT22;14708;50.872;5.306;2023-04-15T01:18:44;20.60;67.60
27188;DHT22;14708;50.872;5.306;2023-04-15T01:21:10;20.60;67.60
27188;DHT22;14708;50.872;5.306;2023-04-15T01:23:36;20.60;67.70
27188;DHT22;14708;50.872;5.306;2023-04-15T01:26:04;20.60;67.60
27188;DHT22;14708;50.872;5.306;2023-04-15T01:28:30;20.60;67.60
27188;DHT22;14708;50.872;5.306;2023-04-15T01:31:06;20.60;67.70
27188;DHT22;14708;50.872;5.306;2023-04-15T01:33:32;20.60;67.50
27188;DHT22;14708;50.872;5.306;2023-04-15T01:35:58;20.60;67.60
27188;DHT22;14708;50.872;5.306;2023-04-15T01:38:25;20.60;67.50
27188;DHT22;14708;50.872;5.306;2023-04-15T01:40:51;20.60;67.50
27188;DHT22;14708;50.872;5.306;2023-04-15T01:43:17;20.60;67.70
27188;DHT22;14708;50.872;5.306;2023-04-15T01:45:43;20.50;67.40
27188;DHT22;14708;50.872;5.306;2023-04-15T01:48:09;20.60;67.50
27188;DHT22;14708;50.872;5.306;2023-04-15T01:50:34;20.50;67.40
27188;DHT22;14708;50.872;5.306;2023-04-15T01:53:02;20.50;67.30
27188;DHT22;14708;50.872;5.306;2023-04-15T01:55:28;20.50;67.50
27188;DHT22;14708;50.872;5.306;2023-04-15T01:57:54;20.50;67.40
27188;DHT22;14708;50.872;5.306;2023-04-15T02:00:20;20.50;67.40
27188;DHT22;14708;50.872;5.306;2023-04-15T02:02:47;20.50;67.50
27188;DHT22;14708;50.872;5.306;2023-04-15T02:05:13;20.50;67.50
27188;DHT22;14708;50.872;5.306;2023-04-15T02:07:39;20.50;67.30
27188;DHT22;14708;50.872;5.306;2023-04-15T02:10:04;20.50;67.50
27188;DHT22;14708;50.872;5.306;2023-04-15T02:12:30;20.50;67.50
27188;DHT22;14708;50.872;5.306;2023-04-15T02:14:56;20.50;67.40
27188;DHT22;14708;50.872;5.306;2023-04-15T02:17:21;20.50;67.40
27188;DHT22;14708;50.872;5.306;2023-04-15T02:19:47;20.50;67.10
27188;DHT22;14708;50.872;5.306;2023-04-15T02:22:13;20.40;67.20
27188;DHT22;14708;50.872;5.306;2023-04-15T02:24:43;20.40;67.20
27188;DHT22;14708;50.872;5.306;2023-04-15T02:27:10;20.40;67.20
27188;DHT22;14708;50.872;5.306;2023-04-15T02:29:38;20.40;67.20
27188;DHT22;14708;50.872;5.306;2023-04-15T02:32:04;20.40;67.20
27188;DHT22;14708;50.872;5.306;2023-04-15T02:34:30;20.40;67.20
27188;DHT22;14708;50.872;5.306;2023-04-15T02:36:57;20.40;67.30
27188;DHT22;14708;50.872;5.306;2023-04-15T02:39:23;20.40;67.30
27188;DHT22;14708;50.872;5.306;2023-04-15T02:41:49;20.40;67.30
27188;DHT22;14708;50.872;5.306;2023-04-15T02:44:17;20.40;67.30
27188;DHT22;14708;50.872;5.306;2023-04-15T02:46:45;20.40;67.30
27188;DHT22;14708;50.872;5.306;2023-04-15T02:49:17;20.40;67.30
27188;DHT22;14708;50.872;5.306;2023-04-15T02:51:43;20.40;67.30
27188;DHT22;14708;50.872;5.306;2023-04-15T02:54:12;20.40;67.20
27188;DHT22;14708;50.872;5.306;2023-04-15T02:56:37;20.40;67.30
27188;DHT22;14708;50.872;5.306;2023-04-15T02:59:03;20.40;68.10
27188;DHT22;14708;50.872;5.306;2023-04-15T03:01:29;20.40;67.20
27188;DHT22;14708;50.872;5.306;2023-04-15T03:03:55;20.30;67.20
27188;DHT22;14708;50.872;5.306;2023-04-15T03:06:20;20.30;67.20
27188;DHT22;14708;50.872;5.306;2023-04-15T03:08:46;20.30;67.20
27188;DHT22;14708;50.872;5.306;2023-04-15T03:11:12;20.30;67.00
27188;DHT22;14708;50.872;5.306;2023-04-15T03:13:38;20.30;67.10
27188;DHT22;14708;50.872;5.306;2023-04-15T03:16:06;20.20;66.90
27188;DHT22;14708;50.872;5.306;2023-04-15T03:18:32;20.30;66.90
27188;DHT22;14708;50.872;5.306;2023-04-15T03:20:57;20.20;67.00
27188;DHT22;14708;50.872;5.306;2023-04-15T03:23:23;20.30;67.20
27188;DHT22;14708;50.872;5.306;2023-04-15T03:25:49;20.20;67.10
27188;DHT22;14708;50.872;5.306;2023-04-15T03:28:15;20.20;66.90
27188;DHT22;14708;50.872;5.306;2023-04-15T03:30:41;20.20;66.70
27188;DHT22;14708;50.872;5.306;2023-04-15T03:33:06;20.20;66.90
27188;DHT22;14708;50.872;5.306;2023-04-15T03:35:33;20.20;66.90
27188;DHT22;14708;50.872;5.306;2023-04-15T03:37:59;20.20;67.00
27188;DHT22;14708;50.872;5.306;2023-04-15T03:40:24;20.20;66.90
27188;DHT22;14708;50.872;5.306;2023-04-15T03:42:50;20.20;66.80
27188;DHT22;14708;50.872;5.306;2023-04-15T03:45:16;20.20;66.90
27188;DHT22;14708;50.872;5.306;2023-04-15T03:47:42;20.20;66.70
27188;DHT22;14708;50.872;5.306;2023-04-15T03:50:07;20.20;66.80
27188;DHT22;14708;50.872;5.306;2023-04-15T03:52:33;20.20;67.00
27188;DHT22;14708;50.872;5.306;2023-04-15T03:54:59;20.10;66.60
27188;DHT22;14708;50.872;5.306;2023-04-15T03:57:25;20.10;66.90
27188;DHT22;14708;50.872;5.306;2023-04-15T03:59:50;20.10;66.90
27188;DHT22;14708;50.872;5.306;2023-04-15T04:02:16;20.10;66.70
27188;DHT22;14708;50.872;5.306;2023-04-15T04:04:42;20.10;66.70
27188;DHT22;14708;50.872;5.306;2023-04-15T04:07:08;20.10;66.70
27188;DHT22;14708;50.872;5.306;2023-04-15T04:09:38;20.10;66.70
27188;DHT22;14708;50.872;5.306;2023-04-15T04:12:05;20.10;66.80
27188;DHT22;14708;50.872;5.306;2023-04-15T04:14:31;20.10;66.60
27188;DHT22;14708;50.872;5.306;2023-04-15T04:16:57;20.10;66.70
27188;DHT22;14708;50.872;5.306;2023-04-15T04:19:22;20.10;66.90
27188;DHT22;14708;50.872;5.306;2023-04-15T04:21:48;20.10;66.70
27188;DHT22;14708;50.872;5.306;2023-04-15T04:24:14;20.10;66.90
27188;DHT22;14708;50.872;5.306;2023-04-15T04:26:40;20.10;66.90
27188;DHT22;14708;50.872;5.306;2023-04-15T04:29:05;20.10;66.80
27188;DHT22;14708;50.872;5.306;2023-04-15T04:31:31;20.10;66.80
27188;DHT22;14708;50.872;5.306;2023-04-15T04:33:57;20.10;66.90
27188;DHT22;14708;50.872;5.306;2023-04-15T04:36:22;20.10;67.00
27188;DHT22;14708;50.872;5.306;2023-04-15T04:38:48;20.10;66.80
27188;DHT22;14708;50.872;5.306;2023-04-15T04:41:14;20.10;66.80
27188;DHT22;14708;50.872;5.306;2023-04-15T04:43:40;20.10;67.00
27188;DHT22;14708;50.872;5.306;2023-04-15T04:46:05;20.10;66.70
27188;DHT22;14708;50.872;5.306;2023-04-15T04:48:31;20.10;66.90
27188;DHT22;14708;50.872;5.306;2023-04-15T04:50:57;20.00;66.80
27188;DHT22;14708;50.872;5.306;2023-04-15T04:53:22;20.00;66.80
27188;DHT22;14708;50.872;5.306;2023-04-15T04:55:48;20.00;66.80
27188;DHT22;14708;50.872;5.306;2023-04-15T04:58:13;20.00;66.80
27188;DHT22;14708;50.872;5.306;2023-04-15T05:00:40;20.00;66.90
27188;DHT22;14708;50.872;5.306;2023-04-15T05:03:06;20.00;66.80
27188;DHT22;14708;50.872;5.306;2023-04-15T05:05:32;20.00;66.70
27188;DHT22;14708;50.872;5.306;2023-04-15T05:07:58;20.00;66.90
27188;DHT22;14708;50.872;5.306;2023-04-15T05:10:24;20.00;66.70
27188;DHT22;14708;50.872;5.306;2023-04-15T05:12:49;20.10;66.50
27188;DHT22;14708;50.872;5.306;2023-04-15T05:15:16;20.10;66.30
27188;DHT22;14708;50.872;5.306;2023-04-15T05:17:42;20.10;64.50
27188;DHT22;14708;50.872;5.306;2023-04-15T05:20:10;20.10;64.60
27188;DHT22;14708;50.872;5.306;2023-04-15T05:22:36;20.10;64.90
27188;DHT22;14708;50.872;5.306;2023-04-15T05:25:02;20.10;64.50
27188;DHT22;14708;50.872;5.306;2023-04-15T05:27:28;20.20;65.30
27188;DHT22;14708;50.872;5.306;2023-04-15T05:29:54;20.20;65.00
27188;DHT22;14708;50.872;5.306;2023-04-15T05:32:20;20.20;63.00
27188;DHT22;14708;50.872;5.306;2023-04-15T05:34:46;20.10;62.30
27188;DHT22;14708;50.872;5.306;2023-04-15T05:37:12;20.10;60.70
27188;DHT22;14708;50.872;5.306;2023-04-15T05:39:37;20.10;61.50
27188;DHT22;14708;50.872;5.306;2023-04-15T05:42:03;20.10;62.20
27188;DHT22;14708;50.872;5.306;2023-04-15T05:44:30;20.10;63.50
27188;DHT22;14708;50.872;5.306;2023-04-15T05:46:56;20.10;63.90
27188;DHT22;14708;50.872;5.306;2023-04-15T05:49:22;20.10;64.30
27188;DHT22;14708;50.872;5.306;2023-04-15T05:51:48;20.10;63.80
27188;DHT22;14708;50.872;5.306;2023-04-15T05:54:14;20.10;64.00
27188;DHT22;14708;50.872;5.306;2023-04-15T05:56:40;20.10;63.70
27188;DHT22;14708;50.872;5.306;2023-04-15T05:59:06;20.10;63.30
27188;DHT22;14708;50.872;5.306;2023-04-15T06:01:32;20.10;62.90
27188;DHT22;14708;50.872;5.306;2023-04-15T06:03:58;20.10;63.00
27188;DHT22;14708;50.872;5.306;2023-04-15T06:06:24;20.10;63.30
27188;DHT22;14708;50.872;5.306;2023-04-15T06:08:52;20.10;63.80
27188;DHT22;14708;50.872;5.306;2023-04-15T06:11:20;20.10;63.80
27188;DHT22;14708;50.872;5.306;2023-04-15T06:13:46;20.20;63.40
27188;DHT22;14708;50.872;5.306;2023-04-15T06:16:12;20.20;63.50
27188;DHT22;14708;50.872;5.306;2023-04-15T06:18:38;20.20;63.90
27188;DHT22;14708;50.872;5.306;2023-04-15T06:21:04;20.40;63.90
27188;DHT22;14708;50.872;5.306;2023-04-15T06:23:33;20.50;64.50
27188;DHT22;14708;50.872;5.306;2023-04-15T06:26:01;20.60;64.30
27188;DHT22;14708;50.872;5.306;2023-04-15T06:28:26;20.70;64.50
27188;DHT22;14708;50.872;5.306;2023-04-15T06:30:52;20.80;64.40
27188;DHT22;14708;50.872;5.306;2023-04-15T06:33:18;20.90;64.20
27188;DHT22;14708;50.872;5.306;2023-04-15T06:35:44;21.00;64.20
27188;DHT22;14708;50.872;5.306;2023-04-15T06:38:10;21.10;64.20
27188;DHT22;14708;50.872;5.306;2023-04-15T06:40:36;21.10;64.30
27188;DHT22;14708;50.872;5.306;2023-04-15T06:43:01;21.20;63.70
27188;DHT22;14708;50.872;5.306;2023-04-15T06:45:29;21.20;64.60
27188;DHT22;14708;50.872;5.306;2023-04-15T06:47:55;21.20;63.80
27188;DHT22;14708;50.872;5.306;2023-04-15T06:50:22;21.20;63.70
27188;DHT22;14708;50.872;5.306;2023-04-15T06:52:48;21.10;63.70
27188;DHT22;14708;50.872;5.306;2023-04-15T06:55:14;21.10;64.10
27188;DHT22;14708;50.872;5.306;2023-04-15T06:57:39;21.10;64.20
27188;DHT22;14708;50.872;5.306;2023-04-15T07:00:07;21.10;64.10
27188;DHT22;14708;50.872;5.306;2023-04-15T07:02:35;21.00;64.00
27188;DHT22;14708;50.872;5.306;2023-04-15T07:05:01;21.10;64.20
27188;DHT22;14708;50.872;5.306;2023-04-15T07:07:27;21.10;64.20
27188;DHT22;14708;50.872;5.306;2023-04-15T07:09:53;21.20;63.80
27188;DHT22;14708;50.872;5.306;2023-04-15T07:12:19;21.20;64.00
27188;DHT22;14708;50.872;5.306;2023-04-15T07:14:44;21.30;63.90
27188;DHT22;14708;50.872;5.306;2023-04-15T07:17:10;21.40;61.30
27188;DHT22;14708;50.872;5.306;2023-04-15T07:19:37;21.50;62.10
27188;DHT22;14708;50.872;5.306;2023-04-15T07:22:03;21.50;62.10
27188;DHT22;14708;50.872;5.306;2023-04-15T07:24:29;21.60;62.30
27188;DHT22;14708;50.872;5.306;2023-04-15T07:26:55;21.70;62.00
27188;DHT22;14708;50.872;5.306;2023-04-15T07:29:22;21.70;61.70
27188;DHT22;14708;50.872;5.306;2023-04-15T07:31:48;21.80;61.70
27188;DHT22;14708;50.872;5.306;2023-04-15T07:34:14;21.80;61.90
27188;DHT22;14708;50.872;5.306;2023-04-15T07:36:41;21.80;61.30
27188;DHT22;14708;50.872;5.306;2023-04-15T07:39:07;21.90;61.60
27188;DHT22;14708;50.872;5.306;2023-04-15T07:41:32;21.80;61.60
27188;DHT22;14708;50.872;5.306;2023-04-15T07:57:27;22.00;60.70
27188;DHT22;14708;50.872;5.306;2023-04-15T07:59:53;22.10;60.50
27188;DHT22;14708;50.872;5.306;2023-04-15T08:02:48;22.10;61.10
27188;DHT22;14708;50.872;5.306;2023-04-15T08:05:14;22.00;59.00
27188;DHT22;14708;50.872;5.306;2023-04-15T08:07:41;21.90;59.90
27188;DHT22;14708;50.872;5.306;2023-04-15T08:10:07;21.90;61.30
27188;DHT22;14708;50.872;5.306;2023-04-15T08:12:36;21.90;61.30
27188;DHT22;14708;50.872;5.306;2023-04-15T08:15:03;21.90;61.10
27188;DHT22;14708;50.872;5.306;2023-04-15T08:17:32;22.00;61.10
27188;DHT22;14708;50.872;5.306;2023-04-15T08:20:03;22.00;60.90
27188;DHT22;14708;50.872;5.306;2023-04-15T08:22:30;22.00;60.90
27188;DHT22;14708;50.872;5.306;2023-04-15T08:24:55;22.00;60.70
27188;DHT22;14708;50.872;5.306;2023-04-15T08:27:22;22.00;60.90
27188;DHT22;14708;50.872;5.306;2023-04-15T08:29:47;22.10;60.90
27188;DHT22;14708;50.872;5.306;2023-04-15T08:32:13;22.10;61.00
27188;DHT22;14708;50.872;5.306;2023-04-15T08:34:39;22.10;61.30
27188;DHT22;14708;50.872;5.306;2023-04-15T08:37:05;22.10;61.30
27188;DHT22;14708;50.872;5.306;2023-04-15T08:39:31;22.20;61.50
27188;DHT22;14708;50.872;5.306;2023-04-15T08:42:01;22.10;61.50
27188;DHT22;14708;50.872;5.306;2023-04-15T08:44:34;22.20;61.60
27188;DHT22;14708;50.872;5.306;2023-04-15T08:47:01;22.20;61.50
27188;DHT22;14708;50.872;5.306;2023-04-15T08:49:27;22.20;61.30
27188;DHT22;14708;50.872;5.306;2023-04-15T08:51:54;22.20;61.40
27188;DHT22;14708;50.872;5.306;2023-04-15T08:54:21;22.20;61.50
27188;DHT22;14708;50.872;5.306;2023-04-15T08:56:47;22.20;61.70
27188;DHT22;14708;50.872;5.306;2023-04-15T08:59:13;22.10;61.80
27188;DHT22;14708;50.872;5.306;2023-04-15T09:01:40;22.20;61.70
27188;DHT22;14708;50.872;5.306;2023-04-15T09:04:10;22.20;61.90
27188;DHT22;14708;50.872;5.306;2023-04-15T09:06:38;22.20;61.80
27188;DHT22;14708;50.872;5.306;2023-04-15T09:09:04;22.10;61.70
27188;DHT22;14708;50.872;5.306;2023-04-15T09:11:30;22.10;62.10
27188;DHT22;14708;50.872;5.306;2023-04-15T09:13:56;22.10;62.10
27188;DHT22;14708;50.872;5.306;2023-04-15T09:16:21;22.10;61.90
27188;DHT22;14708;50.872;5.306;2023-04-15T09:18:47;22.10;62.00
27188;DHT22;14708;50.872;5.306;2023-04-15T09:21:15;22.10;61.70
27188;DHT22;14708;50.872;5.306;2023-04-15T09:23:54;22.10;60.60
27188;DHT22;14708;50.872;5.306;2023-04-15T09:26:33;22.10;58.40
27188;DHT22;14708;50.872;5.306;2023-04-15T09:29:10;22.10;56.50
27188;DHT22;14708;50.872;5.306;2023-04-15T09:31:39;22.10;54.80
27188;DHT22;14708;50.872;5.306;2023-04-15T09:34:05;22.10;55.10
27188;DHT22;14708;50.872;5.306;2023-04-15T09:42:34;22.00;53.30
27188;DHT22;14708;50.872;5.306;2023-04-15T09:45:12;22.00;53.00
27188;DHT22;14708;50.872;5.306;2023-04-15T09:47:38;21.90;56.80
27188;DHT22;14708;50.872;5.306;2023-04-15T09:50:04;21.90;58.10
27188;DHT22;14708;50.872;5.306;2023-04-15T09:52:29;22.00;59.40
27188;DHT22;14708;50.872;5.306;2023-04-15T09:54:57;22.00;59.50
27188;DHT22;14708;50.872;5.306;2023-04-15T09:57:23;22.00;60.80
27188;DHT22;14708;50.872;5.306;2023-04-15T09:59:50;22.00;61.00
27188;DHT22;14708;50.872;5.306;2023-04-15T10:02:17;22.00;61.40
27188;DHT22;14708;50.872;5.306;2023-04-15T10:04:44;22.10;61.90
27188;DHT22;14708;50.872;5.306;2023-04-15T10:10:37;22.00;62.30
27188;DHT22;14708;50.872;5.306;2023-04-15T10:13:04;21.90;62.00
27188;DHT22;14708;50.872;5.306;2023-04-15T10:15:31;22.00;61.90
27188;DHT22;14708;50.872;5.306;2023-04-15T10:17:59;22.10;58.60
27188;DHT22;14708;50.872;5.306;2023-04-15T10:20:25;21.90;57.70
27188;DHT22;14708;50.872;5.306;2023-04-15T10:22:53;21.90;57.00
27188;DHT22;14708;50.872;5.306;2023-04-15T10:25:20;21.90;56.00
27188;DHT22;14708;50.872;5.306;2023-04-15T10:27:46;21.90;58.20
27188;DHT22;14708;50.872;5.306;2023-04-15T10:30:13;21.90;59.40
27188;DHT22;14708;50.872;5.306;2023-04-15T10:32:43;21.90;59.00
27188;DHT22;14708;50.872;5.306;2023-04-15T10:35:09;21.90;58.60
27188;DHT22;14708;50.872;5.306;2023-04-15T10:37:37;21.80;58.30
27188;DHT22;14708;50.872;5.306;2023-04-15T10:40:28;21.80;58.60
27188;DHT22;14708;50.872;5.306;2023-04-15T10:49:48;21.80;58.80
27188;DHT22;14708;50.872;5.306;2023-04-15T10:52:16;21.80;58.30
27188;DHT22;14708;50.872;5.306;2023-04-15T10:54:42;21.80;59.00
27188;DHT22;14708;50.872;5.306;2023-04-15T10:57:14;21.80;58.50
27188;DHT22;14708;50.872;5.306;2023-04-15T11:02:52;21.80;59.30
27188;DHT22;14708;50.872;5.306;2023-04-15T11:09:07;21.80;59.60
27188;DHT22;14708;50.872;5.306;2023-04-15T11:12:05;21.80;59.70
27188;DHT22;14708;50.872;5.306;2023-04-15T11:14:33;21.90;59.60
27188;DHT22;14708;50.872;5.306;2023-04-15T11:17:00;21.80;59.90
27188;DHT22;14708;50.872;5.306;2023-04-15T11:19:26;21.80;59.90
27188;DHT22;14708;50.872;5.306;2023-04-15T11:22:06;21.80;60.00
27188;DHT22;14708;50.872;5.306;2023-04-15T11:24:32;21.80;59.70
27188;DHT22;14708;50.872;5.306;2023-04-15T11:26:57;21.80;59.80
27188;DHT22;14708;50.872;5.306;2023-04-15T11:29:32;21.70;59.80
27188;DHT22;14708;50.872;5.306;2023-04-15T11:32:04;21.70;60.20
27188;DHT22;14708;50.872;5.306;2023-04-15T11:34:31;21.70;59.70
27188;DHT22;14708;50.872;5.306;2023-04-15T11:36:57;21.70;59.80
27188;DHT22;14708;50.872;5.306;2023-04-15T11:39:22;21.70;60.00
27188;DHT22;14708;50.872;5.306;2023-04-15T11:41:48;21.60;60.20
27188;DHT22;14708;50.872;5.306;2023-04-15T11:47:24;21.70;60.20
27188;DHT22;14708;50.872;5.306;2023-04-15T11:49:49;21.60;60.10
27188;DHT22;14708;50.872;5.306;2023-04-15T11:52:15;21.60;60.50
27188;DHT22;14708;50.872;5.306;2023-04-15T11:54:41;21.60;60.50
27188;DHT22;14708;50.872;5.306;2023-04-15T11:57:07;21.60;60.60
27188;DHT22;14708;50.872;5.306;2023-04-15T11:59:42;21.60;60.20
27188;DHT22;14708;50.872;5.306;2023-04-15T12:02:11;21.60;60.10
27188;DHT22;14708;50.872;5.306;2023-04-15T12:04:38;21.60;60.50
27188;DHT22;14708;50.872;5.306;2023-04-15T12:07:04;21.60;60.60
27188;DHT22;14708;50.872;5.306;2023-04-15T12:09:36;21.60;60.60
27188;DHT22;14708;50.872;5.306;2023-04-15T12:12:02;21.50;60.30
27188;DHT22;14708;50.872;5.306;2023-04-15T12:14:30;21.50;59.60
27188;DHT22;14708;50.872;5.306;2023-04-15T12:17:04;21.50;60.20
27188;DHT22;14708;50.872;5.306;2023-04-15T12:19:35;21.50;59.60
27188;DHT22;14708;50.872;5.306;2023-04-15T12:25:33;21.50;60.70
27188;DHT22;14708;50.872;5.306;2023-04-15T12:27:59;21.50;61.00
27188;DHT22;14708;50.872;5.306;2023-04-15T12:30:25;21.50;61.10
27188;DHT22;14708;50.872;5.306;2023-04-15T12:32:51;21.50;61.00
27188;DHT22;14708;50.872;5.306;2023-04-15T12:35:16;21.50;61.20
27188;DHT22;14708;50.872;5.306;2023-04-15T12:37:43;21.50;61.60
27188;DHT22;14708;50.872;5.306;2023-04-15T12:40:09;21.50;62.20
27188;DHT22;14708;50.872;5.306;2023-04-15T12:42:35;21.60;61.80
27188;DHT22;14708;50.872;5.306;2023-04-15T12:45:01;21.60;62.20
27188;DHT22;14708;50.872;5.306;2023-04-15T12:47:26;21.60;62.60
27188;DHT22;14708;50.872;5.306;2023-04-15T12:49:52;21.60;62.60
27188;DHT22;14708;50.872;5.306;2023-04-15T12:52:18;21.60;63.00
27188;DHT22;14708;50.872;5.306;2023-04-15T12:54:43;21.50;63.10
27188;DHT22;14708;50.872;5.306;2023-04-15T12:57:09;21.50;63.10
27188;DHT22;14708;50.872;5.306;2023-04-15T12:59:35;21.50;63.30
27188;DHT22;14708;50.872;5.306;2023-04-15T13:02:00;21.60;63.00
27188;DHT22;14708;50.872;5.306;2023-04-15T13:04:27;21.60;62.90
27188;DHT22;14708;50.872;5.306;2023-04-15T13:06:55;21.60;62.60
27188;DHT22;14708;50.872;5.306;2023-04-15T13:09:25;21.60;61.50
27188;DHT22;14708;50.872;5.306;2023-04-15T13:11:51;21.60;62.10
27188;DHT22;14708;50.872;5.306;2023-04-15T13:14:17;21.60;62.40
27188;DHT22;14708;50.872;5.306;2023-04-15T13:16:42;21.60;62.60
27188;DHT22;14708;50.872;5.306;2023-04-15T13:19:08;21.60;62.80
27188;DHT22;14708;50.872;5.306;2023-04-15T13:21:49;21.60;62.70
27188;DHT22;14708;50.872;5.306;2023-04-15T13:24:15;21.60;62.80
27188;DHT22;14708;50.872;5.306;2023-04-15T13:26:40;21.60;62.90
27188;DHT22;14708;50.872;5.306;2023-04-15T13:29:06;21.60;62.90
27188;DHT22;14708;50.872;5.306;2023-04-15T13:31:32;21.60;63.00
27188;DHT22;14708;50.872;5.306;2023-04-15T13:33:57;21.70;62.30
27188;DHT22;14708;50.872;5.306;2023-04-15T13:36:23;21.70;62.30
27188;DHT22;14708;50.872;5.306;2023-04-15T13:38:49;21.60;61.90
27188;DHT22;14708;50.872;5.306;2023-04-15T13:41:33;21.60;62.20
27188;DHT22;14708;50.872;5.306;2023-04-15T13:43:59;21.60;62.20
27188;DHT22;14708;50.872;5.306;2023-04-15T13:46:25;21.60;61.90
27188;DHT22;14708;50.872;5.306;2023-04-15T13:48:51;21.60;62.50
27188;DHT22;14708;50.872;5.306;2023-04-15T13:51:16;21.60;62.50
27188;DHT22;14708;50.872;5.306;2023-04-15T13:53:42;21.50;62.80
27188;DHT22;14708;50.872;5.306;2023-04-15T13:56:08;21.50;62.80
27188;DHT22;14708;50.872;5.306;2023-04-15T13:58:35;21.60;62.70
27188;DHT22;14708;50.872;5.306;2023-04-15T14:01:01;21.60;62.10
27188;DHT22;14708;50.872;5.306;2023-04-15T14:03:33;21.70;62.50
27188;DHT22;14708;50.872;5.306;2023-04-15T14:06:00;21.70;62.30
27188;DHT22;14708;50.872;5.306;2023-04-15T14:08:25;21.70;62.50
27188;DHT22;14708;50.872;5.306;2023-04-15T14:10:51;21.60;62.30
27188;DHT22;14708;50.872;5.306;2023-04-15T14:13:17;21.70;62.50
27188;DHT22;14708;50.872;5.306;2023-04-15T14:15:44;21.60;62.40
27188;DHT22;14708;50.872;5.306;2023-04-15T14:18:09;21.60;62.60
27188;DHT22;14708;50.872;5.306;2023-04-15T14:20:35;21.60;62.50
27188;DHT22;14708;50.872;5.306;2023-04-15T14:23:01;21.60;62.40
27188;DHT22;14708;50.872;5.306;2023-04-15T14:25:30;21.60;62.60
27188;DHT22;14708;50.872;5.306;2023-04-15T14:27:55;21.60;62.50
27188;DHT22;14708;50.872;5.306;2023-04-15T14:30:21;21.60;62.50
27188;DHT22;14708;50.872;5.306;2023-04-15T14:32:46;21.60;62.60
27188;DHT22;14708;50.872;5.306;2023-04-15T14:35:12;21.60;62.50
27188;DHT22;14708;50.872;5.306;2023-04-15T14:37:37;21.60;62.30
27188;DHT22;14708;50.872;5.306;2023-04-15T14:40:18;21.60;62.50
27188;DHT22;14708;50.872;5.306;2023-04-15T14:42:44;21.60;62.30
27188;DHT22;14708;50.872;5.306;2023-04-15T14:45:10;21.70;62.30
27188;DHT22;14708;50.872;5.306;2023-04-15T14:47:36;21.70;62.20
27188;DHT22;14708;50.872;5.306;2023-04-15T14:50:02;21.80;62.00
27188;DHT22;14708;50.872;5.306;2023-04-15T14:52:29;21.70;62.10
27188;DHT22;14708;50.872;5.306;2023-04-15T14:54:57;21.80;62.20
27188;DHT22;14708;50.872;5.306;2023-04-15T14:57:23;21.80;62.20
27188;DHT22;14708;50.872;5.306;2023-04-15T14:59:48;21.80;61.40
27188;DHT22;14708;50.872;5.306;2023-04-15T15:02:14;21.80;59.60
27188;DHT22;14708;50.872;5.306;2023-04-15T15:04:40;21.90;60.00
27188;DHT22;14708;50.872;5.306;2023-04-15T15:07:18;21.90;60.80
27188;DHT22;14708;50.872;5.306;2023-04-15T15:09:44;21.80;61.00
27188;DHT22;14708;50.872;5.306;2023-04-15T15:12:09;21.80;61.00
27188;DHT22;14708;50.872;5.306;2023-04-15T15:14:36;21.80;60.80
27188;DHT22;14708;50.872;5.306;2023-04-15T15:17:01;21.80;60.80
27188;DHT22;14708;50.872;5.306;2023-04-15T15:19:27;21.90;60.60
27188;DHT22;14708;50.872;5.306;2023-04-15T15:21:53;21.90;60.20
27188;DHT22;14708;50.872;5.306;2023-04-15T15:24:18;21.90;60.40
27188;DHT22;14708;50.872;5.306;2023-04-15T15:26:44;21.90;60.30
27188;DHT22;14708;50.872;5.306;2023-04-15T15:29:09;21.90;59.80
27188;DHT22;14708;50.872;5.306;2023-04-15T15:31:35;21.90;59.60
27188;DHT22;14708;50.872;5.306;2023-04-15T15:34:01;21.90;59.70
27188;DHT22;14708;50.872;5.306;2023-04-15T15:36:27;21.90;59.60
27188;DHT22;14708;50.872;5.306;2023-04-15T15:38:53;21.90;59.60
27188;DHT22;14708;50.872;5.306;2023-04-15T15:52:04;22.10;60.20
27188;DHT22;14708;50.872;5.306;2023-04-15T15:54:30;22.10;60.30
27188;DHT22;14708;50.872;5.306;2023-04-15T15:56:56;22.10;60.20
27188;DHT22;14708;50.872;5.306;2023-04-15T15:59:23;22.10;60.40
27188;DHT22;14708;50.872;5.306;2023-04-15T16:01:50;22.10;60.60
27188;DHT22;14708;50.872;5.306;2023-04-15T16:04:15;22.10;60.60
27188;DHT22;14708;50.872;5.306;2023-04-15T16:06:41;22.00;60.80
27188;DHT22;14708;50.872;5.306;2023-04-15T16:09:09;22.00;61.10
27188;DHT22;14708;50.872;5.306;2023-04-15T16:11:35;22.00;61.20
27188;DHT22;14708;50.872;5.306;2023-04-15T16:14:00;22.10;61.60
27188;DHT22;14708;50.872;5.306;2023-04-15T16:20:07;22.30;60.80
27188;DHT22;14708;50.872;5.306;2023-04-15T16:22:33;22.30;60.50
27188;DHT22;14708;50.872;5.306;2023-04-15T16:24:59;22.40;60.40